Bologna Guglielmo Marconi Airport

LIPE · Emilia-Romagna, 意大利

罗盘
风向 的 Bologna Guglielmo Marconi Airport 12/30
风: 2 kt, 1 beaufort

1 kt

2 kt
改变
0 ft 1.000 2.000 3.000 4.000 5.000
Cloud Cloud Cloud Cloud Cloud Cloud Cloud Cloud
OVC 400
METAR LIPE 281220Z VRB02KT 1200 R12/P2000N R30/P2000N -RA BR OVC004 12/12 Q1016

METAR Bologna Guglielmo Marconi Airport - LIPE/BLQ

Bologna Guglielmo Marconi Airport是,意大利中的大型机场。 该机场位于纬度44,53560和经度11,28821。 该机场有一条跑道: 12/30. 本场的ICAO机场代码为LIPE。 该机场的IATA代码为BLQ。 机场在Milano FIR中。

该航空气象观测是针对Bologna Guglielmo Marconi Airport在2024年2月28日 13:20, 当地时间进行的。

机场观察

可变方向的风很小或没有风。

可见度为1,2 km。 跑道12的能见度为多于 2.000 m 和 没有趋势。 跑道30的能见度为多于 2.000 m 和 没有趋势。

有乌云密布在400 ft的高度。 破损或更高的上限为400 ft。

当前天气为光 雨, 薄雾。 温度和风寒是12 °C。 露点为12 °C,相对湿度为100%。 海平面上的气压为1016 hPa (QNH)。

白天

今天,太阳从06:54升起,在18:00降落。 这适用于Bologna Guglielmo Marconi Airport,世界夏令时可能有所不同。 当地时间与世界标准时间之间的时差为+1 小时。 当前,没有夏令时有效。

公司介绍

我们没有关于这个机场的公司信息。

体会

到Vliegles.nl去找飞行课程,跳伞和其他飞行体验。 浏览页面,了解Bologna Guglielmo Marconi Airport附近所有可用的活动。 你也可以使用搜索功能来寻找你所在地附近的特定飞行课程、跳伞或其他飞行体验。

警示语

跑道12处的能见度为多于 2.000 m 和 没有趋势。
跑道30处的能见度为多于 2.000 m 和 没有趋势。

跑道

Id 标题 侧风 逆风 侧风 %
12/30 117°-297° 2 kt 89 %

逆风成分最大的方向会被突出显示,并用于横风计算。 这并不一定意味着这个方向在使用。

乌云

400 ft OVC 乌云密布

温度 & 天气

天气 光 雨
薄雾
温度 12 °C
露点 12 °C
相对湿度 100%
Kp-index 0 (0-9)

白天

日出
06:54
中午
12:27
日落
18:00 (4:06)

小工具

你想在你的网站上有一个关于Bologna Guglielmo Marconi Airport的当前航空天气(METAR)的小部件吗?

显示HTML代码
?>